Brighton, CO (80601)

6:23 PM MDT on May 22, 2017 (GMT -0600)
Old Brighton | | Change Station

Elev 4986 ft 39.98 °N, 104.82 °W | Updated 2 seconds ago

Rain
Rain
48.7 °F
Feels Like 46 °F
N
5.8
Wind Variable Wind from NNW
Gusts 5.8 mph

Today
High -- | Low -- °F
--% Chance of Precip.
Yesterday
High -- | Low -- °F
Precip. -- in
Pressure 30.15 in
Visibility 5.0 miles
Clouds Mostly Cloudy 1400 ft
Mostly Cloudy 3500 ft
Overcast 9000 ft
Windchill 46 °F
Dew Point 38 °F
Humidity 67%
Rainfall 0.09 in
Snow Depth Not available.
5:38 AM 8:14 PM
Waning Crescent, 11% visible
METAR KDEN 222353Z 01020G29KT 5SM -RA BR BKN014 BKN035 OVC090 07/04 A3020 RMK AO2 PK WND 01031/2342 SLP209 60000 T00670044 10194 20067 53039 PNO
Pressure 30.15 in
Visibility 5.0 miles
Clouds Mostly Cloudy 1400 ft
Mostly Cloudy 3500 ft
Overcast 9000 ft
Windchill 46 °F
Dew Point 38 °F
Humidity 67%
Rainfall 0.09 in
Snow Depth Not available.
5:38 AM 8:14 PM
Waning Crescent, 11% visible
METAR KDEN 222353Z 01020G29KT 5SM -RA BR BKN014 BKN035 OVC090 07/04 A3020 RMK AO2 PK WND 01031/2342 SLP209 60000 T00670044 10194 20067 53039 PNO

Get Severe Weather Alerts

Thanks for signing up!

Be on the lookout for a verification email in your inbox.

You'll start receiving the daily forecast at 6 AM.

×

10-Day Weather Forecast

Almanac

Astronomy

May. 22, 2017 Rise Set
Actual Time
Civil Twilight
Nautical Twilight
Astronomical Twilight
Moon
Length of Visible Light
Length of Day
Tomorrow will be .
, % of the Moon is Illuminated

Today's Extremes

State Highs State Lows

Community

WunderPhotos

Category 6

Welcome to Category 6. This is the collective home for Weather Underground's featured writeups by Dr. Jeff Masters (right), Bob Henson (left), Chris Burt, and other regular contributors.

Nearby

Air Quality

  Air Quality AQ Index Pollutant
Not available.

Snow Depth

Station Depth Elevation

Earthquake Activity

City Distance Mag. Time & Date
Minimum magnitude displayed is 2.5.

Coastal Water Temperatures

Place Temperature

Stations

Nearby Weather Stations

Station Location Temp. Windchill Dew Point Humidity Wind Precip. Elev Updated Type
                   

Watches & Warnings

There are currently no watches in effect.